createdAt,value
2023-07-04T00:01:48.654Z,2.85
2023-07-04T00:04:17.609Z,2.44
2023-07-04T00:06:44.220Z,2.44
2023-07-04T00:09:10.843Z,2.58
2023-07-04T00:11:37.989Z,2.58
2023-07-04T00:14:04.910Z,2.64
2023-07-04T00:16:32.031Z,2.71
2023-07-04T00:18:58.706Z,2.59
2023-07-04T00:21:25.776Z,2.81
2023-07-04T00:23:55.463Z,2.46
2023-07-04T00:26:23.528Z,2.62
2023-07-04T00:28:50.136Z,2.71
2023-07-04T00:31:19.061Z,2.50
2023-07-04T00:33:46.641Z,2.26
2023-07-04T00:36:16.230Z,2.28
2023-07-04T00:38:45.342Z,2.44
2023-07-04T00:41:16.732Z,2.33
2023-07-04T00:43:58.648Z,2.19
2023-07-04T00:46:38.334Z,2.31
2023-07-04T00:49:27.468Z,2.27
2023-07-04T00:52:00.706Z,2.24
2023-07-04T00:54:31.720Z,2.30
2023-07-04T00:57:03.873Z,1.95
2023-07-04T00:59:32.275Z,2.32
2023-07-04T01:01:59.125Z,2.32
2023-07-04T01:04:27.903Z,2.35
2023-07-04T01:07:02.620Z,2.27
2023-07-04T01:09:29.835Z,1.99
2023-07-04T01:11:57.938Z,2.23
2023-07-04T01:14:26.948Z,1.87
2023-07-04T01:16:54.372Z,2.15
2023-07-04T01:19:33.628Z,2.11
2023-07-04T01:22:20.883Z,2.21
2023-07-04T01:25:00.341Z,2.18
2023-07-04T01:27:30.175Z,2.37
2023-07-04T01:30:11.337Z,2.42
2023-07-04T01:32:40.853Z,2.53
2023-07-04T01:35:08.662Z,2.45
2023-07-04T01:37:35.678Z,2.54
2023-07-04T01:40:02.337Z,2.40
2023-07-04T01:42:32.409Z,2.35
2023-07-04T01:45:00.021Z,2.83
2023-07-04T01:47:26.664Z,3.15
2023-07-04T01:49:54.212Z,3.01
2023-07-04T01:52:21.043Z,3.45
2023-07-04T01:54:47.669Z,4.03
2023-07-04T01:57:14.293Z,4.00
2023-07-04T01:59:40.948Z,3.92
2023-07-04T02:02:07.808Z,4.27
2023-07-04T02:04:34.587Z,4.70
2023-07-04T02:07:01.270Z,4.97
2023-07-04T02:09:27.921Z,4.06
2023-07-04T02:11:54.535Z,4.46
2023-07-04T02:14:23.872Z,4.29
2023-07-04T02:16:51.025Z,4.06
2023-07-04T02:19:18.282Z,4.25
2023-07-04T02:21:44.897Z,3.90
2023-07-04T02:24:11.750Z,3.88
2023-07-04T02:26:38.678Z,3.87
2023-07-04T02:29:05.316Z,4.05
2023-07-04T02:31:32.274Z,3.64
2023-07-04T02:34:00.188Z,3.58
2023-07-04T02:36:26.965Z,3.15
2023-07-04T02:38:53.649Z,3.44
2023-07-04T02:41:20.804Z,3.50
2023-07-04T02:43:52.322Z,3.36
2023-07-04T02:46:19.224Z,3.17
2023-07-04T02:48:48.952Z,3.09
2023-07-04T02:51:15.651Z,3.20
2023-07-04T02:53:42.258Z,3.03
2023-07-04T02:56:09.142Z,2.79
2023-07-04T02:58:35.858Z,2.67
2023-07-04T03:01:06.892Z,2.74
2023-07-04T03:03:34.990Z,2.85
2023-07-04T03:06:06.056Z,2.98
2023-07-04T03:08:33.775Z,2.82
2023-07-04T03:11:00.913Z,3.10
2023-07-04T03:13:33.049Z,2.95
2023-07-04T03:15:59.767Z,3.00
2023-07-04T03:18:28.047Z,2.85
2023-07-04T03:20:55.339Z,3.00
2023-07-04T03:23:22.549Z,3.27
2023-07-04T03:25:50.074Z,3.11
2023-07-04T03:28:18.223Z,3.10
2023-07-04T03:30:45.790Z,3.54
2023-07-04T03:33:13.783Z,3.37
2023-07-04T03:35:57.149Z,2.78
2023-07-04T03:38:26.093Z,2.80
2023-07-04T03:40:53.074Z,2.92
2023-07-04T03:43:20.100Z,3.08
2023-07-04T03:45:49.663Z,3.01
2023-07-04T03:48:16.686Z,3.37
2023-07-04T03:50:45.265Z,3.46
2023-07-04T03:53:11.849Z,3.36
2023-07-04T03:55:38.640Z,3.41
2023-07-04T03:58:06.108Z,4.06
2023-07-04T04:00:32.899Z,4.04
2023-07-04T04:03:00.098Z,3.94
2023-07-04T04:05:27.260Z,3.56
2023-07-04T04:07:53.879Z,4.18
2023-07-04T04:10:20.696Z,4.44
2023-07-04T04:12:47.545Z,4.89
2023-07-04T04:15:14.485Z,4.43
2023-07-04T04:17:41.234Z,5.01
2023-07-04T04:20:09.526Z,5.48
2023-07-04T04:22:38.260Z,6.00
2023-07-04T04:25:05.142Z,6.05
2023-07-04T04:27:32.137Z,6.40
2023-07-04T04:29:58.836Z,6.74
2023-07-04T04:32:25.536Z,6.52
2023-07-04T04:34:53.532Z,7.02
2023-07-04T04:37:20.218Z,6.20
2023-07-04T04:39:46.929Z,6.50
2023-07-04T04:42:16.385Z,6.36
2023-07-04T04:44:45.049Z,6.58
2023-07-04T04:47:13.632Z,7.03
2023-07-04T04:49:41.262Z,7.55
2023-07-04T04:52:08.966Z,7.66
2023-07-04T04:54:35.678Z,7.47
2023-07-04T04:57:03.656Z,7.50
2023-07-04T04:59:30.260Z,7.38
2023-07-04T05:01:57.043Z,7.02
2023-07-04T05:04:24.907Z,7.62
2023-07-04T05:06:51.522Z,6.98
2023-07-04T05:09:18.147Z,6.98
2023-07-04T05:11:44.823Z,7.23
2023-07-04T05:14:11.742Z,7.52
2023-07-04T05:16:38.448Z,7.64
2023-07-04T05:19:05.149Z,7.09
2023-07-04T05:21:32.670Z,7.47
2023-07-04T05:24:00.379Z,7.39
2023-07-04T05:26:28.516Z,7.45
2023-07-04T05:28:56.547Z,7.68
2023-07-04T05:31:25.296Z,7.25
2023-07-04T05:33:53.575Z,7.85
2023-07-04T05:36:20.310Z,8.05
2023-07-04T05:38:48.145Z,7.95
2023-07-04T05:41:16.368Z,7.77
2023-07-04T05:43:43.711Z,7.54
2023-07-04T05:46:11.949Z,8.21
2023-07-04T05:48:39.248Z,8.05
2023-07-04T05:51:07.581Z,7.93
2023-07-04T05:53:35.882Z,7.90
2023-07-04T05:56:12.345Z,7.42
2023-07-04T05:58:40.412Z,7.67
2023-07-04T06:01:12.450Z,7.63
2023-07-04T06:03:40.252Z,7.88
2023-07-04T06:06:07.972Z,8.16
2023-07-04T06:08:35.903Z,7.40
2023-07-04T06:11:04.579Z,7.68
2023-07-04T06:13:31.852Z,7.82
2023-07-04T06:15:59.721Z,7.78
2023-07-04T06:18:26.448Z,8.01
2023-07-04T06:20:53.246Z,7.55
2023-07-04T06:23:24.755Z,7.73
2023-07-04T06:25:56.614Z,7.56
2023-07-04T06:28:23.290Z,7.30
2023-07-04T06:30:50.090Z,7.07
2023-07-04T06:33:17.131Z,6.84
2023-07-04T06:35:44.122Z,7.03
2023-07-04T06:38:11.444Z,7.32
2023-07-04T06:40:38.725Z,6.86
2023-07-04T06:43:06.291Z,7.13
2023-07-04T06:45:33.436Z,6.49
2023-07-04T06:48:00.396Z,6.42
2023-07-04T06:50:27.506Z,6.73
2023-07-04T06:52:54.071Z,6.06
2023-07-04T06:55:21.393Z,6.47
2023-07-04T06:57:48.402Z,5.80
2023-07-04T07:00:15.192Z,5.94
2023-07-04T07:02:42.921Z,5.86
2023-07-04T07:05:09.644Z,5.67
2023-07-04T07:07:36.282Z,5.59
2023-07-04T07:10:02.877Z,5.16
2023-07-04T07:12:29.553Z,5.14
2023-07-04T07:14:56.162Z,5.25
2023-07-04T07:17:22.824Z,5.10
2023-07-04T07:19:49.471Z,4.97
2023-07-04T07:22:16.064Z,5.14
2023-07-04T07:24:42.658Z,4.58
2023-07-04T07:27:10.119Z,4.10
2023-07-04T07:29:36.790Z,4.10
2023-07-04T07:32:07.865Z,4.39
2023-07-04T07:34:35.569Z,4.94
2023-07-04T07:37:03.533Z,4.56
2023-07-04T07:39:30.224Z,4.29
2023-07-04T07:41:56.873Z,4.53
2023-07-04T07:44:23.516Z,4.87
2023-07-04T07:46:50.153Z,4.19
2023-07-04T07:49:17.197Z,4.25
2023-07-04T07:51:43.845Z,4.35
2023-07-04T07:54:11.476Z,4.29
2023-07-04T07:56:40.801Z,4.27
2023-07-04T07:59:07.469Z,4.39
2023-07-04T08:01:34.774Z,4.54
2023-07-04T08:04:02.914Z,4.88
2023-07-04T08:06:31.724Z,4.63
2023-07-04T08:08:59.786Z,5.01
2023-07-04T08:11:27.201Z,4.90
2023-07-04T08:13:54.594Z,5.38
2023-07-04T08:16:23.017Z,5.31
2023-07-04T08:18:50.385Z,5.18
2023-07-04T08:21:18.083Z,5.00
2023-07-04T08:23:45.125Z,4.86
2023-07-04T08:26:16.113Z,4.98
2023-07-04T08:28:42.695Z,5.24
2023-07-04T08:31:10.887Z,4.75
2023-07-04T08:33:37.662Z,5.08
2023-07-04T08:36:06.456Z,5.07
2023-07-04T08:38:33.098Z,5.00
2023-07-04T08:41:01.464Z,4.88
2023-07-04T08:43:36.914Z,4.76
2023-07-04T08:46:06.493Z,4.40
2023-07-04T08:48:34.073Z,4.21
2023-07-04T08:51:03.384Z,3.88
2023-07-04T08:53:31.301Z,3.86
2023-07-04T08:56:34.577Z,3.76
2023-07-04T08:59:05.485Z,3.85
2023-07-04T09:01:54.072Z,3.61
2023-07-04T09:04:39.055Z,4.02
2023-07-04T09:07:17.503Z,4.26
2023-07-04T09:09:54.041Z,3.80
2023-07-04T09:12:20.775Z,3.85
2023-07-04T09:14:59.193Z,3.60
2023-07-04T09:17:35.752Z,4.28
2023-07-04T09:20:03.706Z,3.94
2023-07-04T09:22:30.238Z,3.68
2023-07-04T09:24:56.981Z,3.63
2023-07-04T09:27:23.641Z,3.34
2023-07-04T09:29:50.365Z,3.72
2023-07-04T09:32:17.342Z,3.77
2023-07-04T09:34:53.762Z,3.33
2023-07-04T09:37:21.179Z,3.49
2023-07-04T09:42:37.291Z,3.04
2023-07-04T09:45:09.821Z,3.14
2023-07-04T09:47:37.824Z,3.35
2023-07-04T09:50:13.358Z,3.29
2023-07-04T09:52:40.519Z,3.06
2023-07-04T09:55:08.623Z,3.22
2023-07-04T09:57:35.853Z,3.07
2023-07-04T10:00:22.918Z,2.81
2023-07-04T10:02:53.809Z,2.79
2023-07-04T10:05:28.860Z,2.41
2023-07-04T10:08:05.278Z,2.77
2023-07-04T10:10:34.752Z,2.45
2023-07-04T10:13:01.338Z,2.65
2023-07-04T10:15:36.655Z,3.09
2023-07-04T10:18:06.783Z,2.65
2023-07-04T10:20:38.026Z,3.01
2023-07-04T10:23:04.936Z,2.80
2023-07-04T10:25:31.776Z,2.76
2023-07-04T10:28:07.718Z,3.09
2023-07-04T10:30:37.020Z,3.13
2023-07-04T10:33:07.414Z,3.04
2023-07-04T10:35:36.146Z,3.26
2023-07-04T10:38:06.781Z,2.85
2023-07-04T10:40:38.516Z,2.85
2023-07-04T10:43:13.819Z,2.86
2023-07-04T10:45:52.298Z,2.78
2023-07-04T10:48:31.166Z,2.69
2023-07-04T10:51:01.223Z,2.97
2023-07-04T10:53:28.233Z,3.05
2023-07-04T10:56:16.196Z,3.14
2023-07-04T10:58:45.484Z,3.03
2023-07-04T11:01:20.288Z,2.85
2023-07-04T11:03:47.329Z,2.89
2023-07-04T11:06:18.233Z,3.10
2023-07-04T11:08:44.955Z,3.10
2023-07-04T11:11:14.606Z,3.52
2023-07-04T11:13:49.662Z,3.72
2023-07-04T11:16:20.962Z,3.86
2023-07-04T11:18:59.446Z,3.92
2023-07-04T11:21:26.002Z,4.11
2023-07-04T11:24:09.477Z,3.89
2023-07-04T11:26:53.167Z,3.87
2023-07-04T11:29:22.052Z,3.44
2023-07-04T11:32:03.641Z,3.45
2023-07-04T11:34:45.702Z,3.19
2023-07-04T11:37:17.005Z,3.10
2023-07-04T11:39:48.847Z,3.17
2023-07-04T11:42:21.447Z,3.03
2023-07-04T11:45:00.562Z,3.10
2023-07-04T11:47:58.182Z,2.93
2023-07-04T11:50:46.036Z,3.09
2023-07-04T11:53:18.742Z,3.30
2023-07-04T11:55:45.831Z,3.28
2023-07-04T11:58:12.432Z,2.72
2023-07-04T12:00:41.781Z,2.95
2023-07-04T12:03:18.144Z,3.07
2023-07-04T12:05:46.286Z,3.08
2023-07-04T12:08:33.072Z,2.94
2023-07-04T12:11:02.749Z,2.94
2023-07-04T12:13:32.227Z,3.36
2023-07-04T12:15:59.162Z,3.03
2023-07-04T12:18:30.160Z,3.10
2023-07-04T12:21:00.087Z,3.19
2023-07-04T12:23:27.424Z,3.13
2023-07-04T12:25:55.926Z,3.12
2023-07-04T12:28:26.947Z,2.93
2023-07-04T12:33:40.592Z,2.83
2023-07-04T12:36:11.126Z,3.19
2023-07-04T12:38:48.712Z,3.31
2023-07-04T12:41:17.094Z,3.32
2023-07-04T12:51:17.108Z,3.03
2023-07-04T12:53:45.005Z,2.92
2023-07-04T12:56:13.789Z,2.97
2023-07-04T12:58:45.524Z,3.08
2023-07-04T13:01:17.736Z,3.03
2023-07-04T13:03:45.298Z,2.98
2023-07-04T13:06:21.003Z,3.20
2023-07-04T13:08:50.838Z,2.93
2023-07-04T13:11:20.291Z,3.26
2023-07-04T13:13:50.997Z,3.22
2023-07-04T13:16:31.416Z,3.34
2023-07-04T13:18:59.422Z,2.95
2023-07-04T13:21:25.994Z,2.97
2023-07-04T13:26:24.397Z,3.26
2023-07-04T13:34:11.470Z,3.32
2023-07-04T13:36:43.078Z,3.44
2023-07-04T13:41:42.149Z,3.28
2023-07-04T13:46:38.829Z,3.27
2023-07-04T13:49:05.737Z,3.53
2023-07-04T13:51:33.146Z,3.32
2023-07-04T13:53:59.733Z,3.43
2023-07-04T13:56:26.780Z,3.50
2023-07-04T13:58:54.458Z,3.70
2023-07-04T14:06:20.555Z,3.90
2023-07-04T14:08:47.327Z,3.72
2023-07-04T14:11:18.825Z,3.59
2023-07-04T14:13:45.724Z,3.73
2023-07-04T14:21:15.269Z,3.87
2023-07-04T14:23:42.126Z,3.79
2023-07-04T14:26:14.158Z,3.70
2023-07-04T14:28:40.733Z,4.08
2023-07-04T14:31:08.861Z,3.91
2023-07-04T14:33:35.499Z,4.02
2023-07-04T14:36:05.862Z,4.13
2023-07-04T14:38:34.191Z,4.03
2023-07-04T14:43:35.295Z,4.18
2023-07-04T14:46:03.591Z,4.35
2023-07-04T14:48:30.606Z,4.26
2023-07-04T14:51:15.483Z,4.49
2023-07-04T14:53:43.419Z,4.82
2023-07-04T14:56:45.113Z,4.67
2023-07-04T14:59:16.560Z,5.08
2023-07-04T15:01:43.190Z,4.90
2023-07-04T15:04:09.809Z,4.81
2023-07-04T15:06:37.160Z,4.80
2023-07-04T15:09:03.871Z,4.88
2023-07-04T15:11:30.422Z,5.14
2023-07-04T15:13:57.149Z,5.05
2023-07-04T15:16:24.523Z,6.19
2023-07-04T15:18:51.336Z,5.51
2023-07-04T15:21:17.995Z,5.39
2023-07-04T15:23:44.775Z,5.33
2023-07-04T15:28:43.430Z,5.19
2023-07-04T15:31:10.352Z,5.45
2023-07-04T15:33:37.274Z,5.22
2023-07-04T15:36:04.053Z,5.32
2023-07-04T15:38:30.746Z,5.32
2023-07-04T15:40:59.438Z,5.40
2023-07-04T15:43:27.334Z,5.56
2023-07-04T15:45:56.483Z,5.82
2023-07-04T15:48:23.311Z,5.65
2023-07-04T15:50:50.202Z,5.66
2023-07-04T15:53:16.912Z,5.32
2023-07-04T15:55:43.501Z,5.50
2023-07-04T15:58:10.188Z,5.42
2023-07-04T16:00:37.619Z,5.54
2023-07-04T16:03:04.559Z,5.76
2023-07-04T16:05:31.193Z,5.52
2023-07-04T16:07:57.765Z,5.81
2023-07-04T16:10:24.506Z,5.89
2023-07-04T16:12:51.098Z,5.48
2023-07-04T16:15:17.708Z,5.51
2023-07-04T16:17:44.491Z,5.39
2023-07-04T16:20:11.184Z,5.00
2023-07-04T16:22:37.909Z,5.37
2023-07-04T16:25:04.558Z,5.43
2023-07-04T16:27:31.154Z,5.29
2023-07-04T16:29:57.761Z,5.13
2023-07-04T16:32:26.759Z,5.09
2023-07-04T16:34:53.631Z,5.33
2023-07-04T16:37:20.255Z,5.08
2023-07-04T16:39:46.903Z,5.39
2023-07-04T16:42:16.483Z,5.12
2023-07-04T16:44:43.181Z,5.42
2023-07-04T16:47:09.948Z,5.55
2023-07-04T16:49:36.623Z,5.33
2023-07-04T16:52:03.719Z,5.36
2023-07-04T16:54:30.266Z,5.35
2023-07-04T16:56:57.069Z,5.41
2023-07-04T16:59:23.873Z,5.44
2023-07-04T17:01:50.544Z,5.48
2023-07-04T17:04:17.272Z,5.37
2023-07-04T17:06:43.906Z,5.69
2023-07-04T17:09:10.505Z,5.66
2023-07-04T17:11:37.175Z,5.62
2023-07-04T17:14:04.299Z,5.72
2023-07-04T17:16:31.062Z,5.41
2023-07-04T17:18:57.675Z,5.41
2023-07-04T17:21:24.343Z,5.40
2023-07-04T17:23:52.411Z,5.19
2023-07-04T17:26:20.047Z,5.22
2023-07-04T17:28:46.999Z,5.24
2023-07-04T17:31:13.637Z,5.52
2023-07-04T17:33:41.533Z,5.27
2023-07-04T17:36:10.865Z,5.45
2023-07-04T17:38:38.439Z,5.23
2023-07-04T17:41:06.965Z,5.18
2023-07-04T17:43:33.824Z,5.46
2023-07-04T17:46:05.025Z,5.10
2023-07-04T17:48:31.783Z,5.43
2023-07-04T17:51:03.251Z,5.34
2023-07-04T17:53:29.915Z,5.13
2023-07-04T17:55:56.534Z,5.39
2023-07-04T17:58:23.270Z,5.34
2023-07-04T18:00:50.020Z,5.28
2023-07-04T18:03:16.725Z,5.62
2023-07-04T18:05:43.984Z,5.44
2023-07-04T18:08:11.097Z,5.42
2023-07-04T18:10:41.077Z,5.25
2023-07-04T18:13:07.810Z,5.37
2023-07-04T18:15:37.836Z,5.51
2023-07-04T18:18:04.518Z,5.66
2023-07-04T18:20:31.209Z,5.57
2023-07-04T18:22:57.843Z,5.40
2023-07-04T18:25:24.563Z,5.30
2023-07-04T18:27:51.844Z,5.36
2023-07-04T18:30:18.471Z,5.73
2023-07-04T18:32:45.155Z,5.85
2023-07-04T18:35:11.835Z,5.90
2023-07-04T18:37:38.443Z,5.96
2023-07-04T18:40:05.718Z,6.01
2023-07-04T18:42:32.355Z,6.32
2023-07-04T18:44:58.965Z,6.30
2023-07-04T18:47:25.634Z,6.77
2023-07-04T18:49:52.380Z,7.09
2023-07-04T18:52:19.007Z,7.27
2023-07-04T18:54:45.701Z,7.33
2023-07-04T18:57:14.395Z,7.38
2023-07-04T18:59:41.116Z,7.11
2023-07-04T19:02:08.333Z,7.13
2023-07-04T19:04:36.617Z,7.39
2023-07-04T19:07:03.682Z,7.08
2023-07-04T19:09:30.780Z,7.13
2023-07-04T19:11:57.457Z,7.86
2023-07-04T19:14:24.113Z,7.73
2023-07-04T19:16:58.352Z,7.80
2023-07-04T19:19:33.009Z,7.90
2023-07-04T19:22:01.939Z,7.90
2023-07-04T19:24:33.430Z,7.87
2023-07-04T19:27:00.262Z,7.76
2023-07-04T19:29:29.524Z,7.86
2023-07-04T19:31:57.404Z,8.48
2023-07-04T19:34:24.940Z,8.14
2023-07-04T19:36:56.378Z,7.66
2023-07-04T19:39:24.069Z,7.69
2023-07-04T19:41:50.774Z,7.72
2023-07-04T19:44:17.494Z,8.59
2023-07-04T19:46:44.280Z,10.75
2023-07-04T19:49:12.813Z,11.85
2023-07-04T19:51:39.511Z,10.27
2023-07-04T19:54:07.164Z,9.04
2023-07-04T19:56:34.753Z,9.27
2023-07-04T19:59:01.645Z,8.96
2023-07-04T20:01:29.761Z,8.65
2023-07-04T20:03:56.571Z,8.71
2023-07-04T20:06:23.978Z,8.56
2023-07-04T20:08:52.193Z,7.85
2023-07-04T20:11:20.019Z,7.61
2023-07-04T20:13:47.188Z,8.23
2023-07-04T20:16:19.510Z,8.28
2023-07-04T20:18:46.760Z,7.67
2023-07-04T20:21:14.053Z,7.41
2023-07-04T20:23:41.547Z,7.98
2023-07-04T20:26:11.220Z,8.32
2023-07-04T20:28:38.039Z,8.15
2023-07-04T20:31:04.877Z,8.11
2023-07-04T20:33:33.326Z,8.24
2023-07-04T20:36:00.947Z,8.72
2023-07-04T20:38:27.811Z,8.33
2023-07-04T20:40:54.676Z,8.90
2023-07-04T20:43:22.987Z,8.89
2023-07-04T20:45:52.770Z,8.94
2023-07-04T20:48:19.706Z,8.95
2023-07-04T20:50:49.216Z,8.74
2023-07-04T20:53:17.145Z,8.60
2023-07-04T20:55:44.764Z,8.96
2023-07-04T20:58:12.517Z,8.73
2023-07-04T21:00:39.136Z,9.08
2023-07-04T21:03:07.324Z,8.80
2023-07-04T21:05:35.029Z,9.05
2023-07-04T21:08:01.715Z,9.37
2023-07-04T21:10:29.060Z,9.44
2023-07-04T21:12:59.735Z,9.05
2023-07-04T21:15:27.778Z,9.13
2023-07-04T21:17:55.841Z,9.10
2023-07-04T21:20:23.608Z,9.45
2023-07-04T21:22:50.521Z,9.52
2023-07-04T21:25:17.249Z,9.93
2023-07-04T21:27:43.920Z,10.18
2023-07-04T21:30:10.947Z,10.10
2023-07-04T21:32:38.182Z,9.88
2023-07-04T21:35:05.168Z,10.52
2023-07-04T21:37:31.779Z,10.15
2023-07-04T21:39:58.466Z,11.11
2023-07-04T21:42:25.069Z,10.06
2023-07-04T21:44:54.842Z,10.72
2023-07-04T21:47:21.724Z,9.92
2023-07-04T21:49:50.059Z,10.33
2023-07-04T21:52:17.615Z,9.90
2023-07-04T21:54:45.458Z,10.45
2023-07-04T21:57:12.593Z,10.13
2023-07-04T21:59:39.427Z,9.69
2023-07-04T22:02:06.387Z,9.56
2023-07-04T22:04:33.171Z,9.71
2023-07-04T22:06:59.902Z,9.27
2023-07-04T22:09:26.731Z,9.44
2023-07-04T22:11:53.657Z,9.88
2023-07-04T22:14:27.536Z,9.45
2023-07-04T22:17:02.730Z,9.63
2023-07-04T22:19:29.436Z,9.12
2023-07-04T22:21:56.173Z,9.16
2023-07-04T22:24:24.137Z,8.87
2023-07-04T22:26:50.737Z,8.82
2023-07-04T22:29:17.449Z,9.13
2023-07-04T22:31:44.091Z,9.79
2023-07-04T22:34:12.316Z,9.18
2023-07-04T22:36:39.714Z,9.50
2023-07-04T22:39:08.524Z,9.37
2023-07-04T22:41:35.210Z,9.51
2023-07-04T22:44:01.852Z,9.16
2023-07-04T22:46:30.306Z,9.35
2023-07-04T22:48:57.957Z,9.39
2023-07-04T22:51:24.870Z,9.59
2023-07-04T22:53:52.464Z,9.57
2023-07-04T22:56:19.893Z,9.72
2023-07-04T22:58:47.187Z,10.14
2023-07-04T23:01:15.792Z,10.60
2023-07-04T23:03:42.798Z,10.80
2023-07-04T23:06:10.623Z,10.76
2023-07-04T23:08:37.240Z,10.71
2023-07-04T23:11:03.963Z,10.92
2023-07-04T23:13:31.291Z,10.89
2023-07-04T23:16:08.848Z,10.46
2023-07-04T23:18:35.985Z,11.24
2023-07-04T23:21:02.879Z,11.15
2023-07-04T23:23:32.324Z,10.91
2023-07-04T23:25:59.598Z,11.21
2023-07-04T23:28:26.420Z,10.48
2023-07-04T23:30:53.204Z,10.78
2023-07-04T23:33:20.017Z,10.56
2023-07-04T23:35:57.317Z,10.31
2023-07-04T23:38:24.053Z,10.64
2023-07-04T23:40:51.296Z,9.95
2023-07-04T23:43:18.220Z,9.92
2023-07-04T23:45:46.204Z,9.99
2023-07-04T23:48:13.571Z,10.38
2023-07-04T23:50:41.009Z,10.56
2023-07-04T23:53:07.618Z,10.79
2023-07-04T23:55:34.295Z,11.08
2023-07-04T23:58:00.971Z,10.71
